Pagrindinis puslapis
METAR-TAF:

METAR-TAF

Oro uostai :

Tulča, Rumunija

platuma: 45-11N, ilguma: 028-49E, Aukštis: 4 m

Dabartinis oras

Ataskaita buvo paskelbta 33 minutes, ne 20:00 UTC
Vėjas 2 kt iš Šiaurės, svyruoja nuo Vakarų/Šiaurės Vakarų ir Šiaurės/Šiaurės Rytų
Temperatūra 3°C
Drėgmė 87%
Slėgis 1022 hPa
Matomumas 10 km arba daugiau

METAR: LRTC 152000Z AUTO 35002KT 290V030 9999 NCD 03/01 Q1022

Laikas: 22:33 (20:33 UTC)


TAF: trūkstamas

Orai ataskaitas ir orų prognozės (METAR, TAF).

turimą stotys yra geltonos ir raudonos taškus žemėlapyje.

Perkelti pele per norėdami pamatyti stoties vardą.

Tada spustelėkite, norėdami matyti oro stebėjimo ir prognozės.

Norėdami pakeisti žemėlapį: spustelėkite ant žalios mygtukų su juodo kryžiaus žemyn,; žalią mygtuką su brūkšneliu, jei norite nutolinti; arba žalių rodyklių gretimoms žemėlapius.


METAR-TAF: